<?xml version="1.0" encoding="utf-8"?>
<gpx xmlns:xsi="http://www.w3.org/2001/XMLSchema-instance" xmlns:xsd="http://www.w3.org/2001/XMLSchema" version="1.1" creator="Shapelink.com" xmlns="http://www.topografix.com/GPX/1/1" xmlns:gpxtpx="http://www.garmin.com/xmlschemas/TrackPointExtension/v1">
  <metadata>
    <name>Övrigt 3.13 km, 2019-04-26</name>
    <desc></desc>
    <author><name>Marian Moron</name></author> 
    <time>2019-04-26T20:32:42Z</time>
  </metadata>
  <trk>
    <name>Övrigt 3.13 km, 2019-04-26</name>
    <trkseg>
      <trkpt lat="51.229904746838" lon="4.457917538312">
        <ele>0</ele>
        <time>2019-04-26T20:32:42Z</time>
      </trkpt>
      <trkpt lat="51.230040282161" lon="4.458595131108">
        <ele>0</ele>
        <time>2019-04-26T20:33:13Z</time>
      </trkpt>
      <trkpt lat="51.2297872326" lon="4.459009699882">
        <ele>0</ele>
        <time>2019-04-26T20:33:44Z</time>
      </trkpt>
      <trkpt lat="51.22972185378" lon="4.458969131486">
        <ele>2.6</ele>
        <time>2019-04-26T20:34:15Z</time>
      </trkpt>
      <trkpt lat="51.229871805971" lon="4.458835943095">
        <ele>3.2</ele>
        <time>2019-04-26T20:34:38Z</time>
      </trkpt>
      <trkpt lat="51.229920420991" lon="4.458110992564">
        <ele>3.4</ele>
        <time>2019-04-26T20:35:14Z</time>
      </trkpt>
      <trkpt lat="51.229884043545" lon="4.457962884391">
        <ele>3</ele>
        <time>2019-04-26T20:35:25Z</time>
      </trkpt>
      <trkpt lat="51.229800140726" lon="4.458154578444">
        <ele>4.8</ele>
        <time>2019-04-26T20:36:49Z</time>
      </trkpt>
      <trkpt lat="51.229834590335" lon="4.457999764751">
        <ele>3</ele>
        <time>2019-04-26T20:36:53Z</time>
      </trkpt>
      <trkpt lat="51.229989906942" lon="4.458671322579">
        <ele>0</ele>
        <time>2019-04-26T20:37:25Z</time>
      </trkpt>
      <trkpt lat="51.230003988534" lon="4.45871901559">
        <ele>0</ele>
        <time>2019-04-26T20:37:40Z</time>
      </trkpt>
      <trkpt lat="51.230021590524" lon="4.45885312599">
        <ele>0</ele>
        <time>2019-04-26T20:37:57Z</time>
      </trkpt>
      <trkpt lat="51.230469016346" lon="4.458721027246">
        <ele>0</ele>
        <time>2019-04-26T20:38:15Z</time>
      </trkpt>
      <trkpt lat="51.230636402889" lon="4.458664617059">
        <ele>1.2</ele>
        <time>2019-04-26T20:38:28Z</time>
      </trkpt>
      <trkpt lat="51.230898504902" lon="4.458593873823">
        <ele>1.6</ele>
        <time>2019-04-26T20:38:54Z</time>
      </trkpt>
      <trkpt lat="51.231048960007" lon="4.458559005119">
        <ele>0</ele>
        <time>2019-04-26T20:39:12Z</time>
      </trkpt>
      <trkpt lat="51.23117695162" lon="4.458452303532">
        <ele>0</ele>
        <time>2019-04-26T20:39:44Z</time>
      </trkpt>
      <trkpt lat="51.231196146171" lon="4.458437802845">
        <ele>0</ele>
        <time>2019-04-26T20:39:46Z</time>
      </trkpt>
      <trkpt lat="51.23159520843" lon="4.458300339685">
        <ele>6</ele>
        <time>2019-04-26T20:40:45Z</time>
      </trkpt>
      <trkpt lat="51.23159688481" lon="4.45836529941">
        <ele>6.6</ele>
        <time>2019-04-26T20:40:48Z</time>
      </trkpt>
      <trkpt lat="51.231708112623" lon="4.459076335987">
        <ele>0</ele>
        <time>2019-04-26T20:41:19Z</time>
      </trkpt>
      <trkpt lat="51.231753291064" lon="4.459312789386">
        <ele>0</ele>
        <time>2019-04-26T20:41:31Z</time>
      </trkpt>
      <trkpt lat="51.231802325179" lon="4.459630211939">
        <ele>0</ele>
        <time>2019-04-26T20:41:48Z</time>
      </trkpt>
      <trkpt lat="51.231950098076" lon="4.460328591847">
        <ele>0</ele>
        <time>2019-04-26T20:42:17Z</time>
      </trkpt>
      <trkpt lat="51.231982200753" lon="4.460512993647">
        <ele>0</ele>
        <time>2019-04-26T20:42:29Z</time>
      </trkpt>
      <trkpt lat="51.23204950741" lon="4.461241213119">
        <ele>0</ele>
        <time>2019-04-26T20:43:00Z</time>
      </trkpt>
      <trkpt lat="51.232175403548" lon="4.461934396249">
        <ele>0</ele>
        <time>2019-04-26T20:43:32Z</time>
      </trkpt>
      <trkpt lat="51.232294426528" lon="4.462431610557">
        <ele>0</ele>
        <time>2019-04-26T20:43:50Z</time>
      </trkpt>
      <trkpt lat="51.232375898596" lon="4.463135187243">
        <ele>0</ele>
        <time>2019-04-26T20:44:23Z</time>
      </trkpt>
      <trkpt lat="51.232358631882" lon="4.463221185537">
        <ele>0</ele>
        <time>2019-04-26T20:44:28Z</time>
      </trkpt>
      <trkpt lat="51.232503052019" lon="4.463919230169">
        <ele>0</ele>
        <time>2019-04-26T20:44:59Z</time>
      </trkpt>
      <trkpt lat="51.232504728399" lon="4.463942448032">
        <ele>0</ele>
        <time>2019-04-26T20:45:00Z</time>
      </trkpt>
      <trkpt lat="51.232442283244" lon="4.464169178427">
        <ele>0</ele>
        <time>2019-04-26T20:45:11Z</time>
      </trkpt>
      <trkpt lat="51.232394674052" lon="4.464306557768">
        <ele>0</ele>
        <time>2019-04-26T20:45:22Z</time>
      </trkpt>
      <trkpt lat="51.232361565547" lon="4.464285351561">
        <ele>0</ele>
        <time>2019-04-26T20:45:28Z</time>
      </trkpt>
      <trkpt lat="51.232276321624" lon="4.464251488685">
        <ele>0</ele>
        <time>2019-04-26T20:45:43Z</time>
      </trkpt>
      <trkpt lat="51.232241117644" lon="4.464198095982">
        <ele>0</ele>
        <time>2019-04-26T20:45:50Z</time>
      </trkpt>
      <trkpt lat="51.232062750812" lon="4.463966587904">
        <ele>0</ele>
        <time>2019-04-26T20:46:11Z</time>
      </trkpt>
      <trkpt lat="51.23176200824" lon="4.463678166725">
        <ele>0</ele>
        <time>2019-04-26T20:46:40Z</time>
      </trkpt>
      <trkpt lat="51.231421032548" lon="4.463335430834">
        <ele>0</ele>
        <time>2019-04-26T20:47:23Z</time>
      </trkpt>
      <trkpt lat="51.231156583603" lon="4.463235937681">
        <ele>0</ele>
        <time>2019-04-26T20:47:43Z</time>
      </trkpt>
      <trkpt lat="51.231120206157" lon="4.463277008991">
        <ele>0</ele>
        <time>2019-04-26T20:47:47Z</time>
      </trkpt>
      <trkpt lat="51.231087181471" lon="4.463344231829">
        <ele>0</ele>
        <time>2019-04-26T20:47:51Z</time>
      </trkpt>
      <trkpt lat="51.230853997013" lon="4.463441042774">
        <ele>0</ele>
        <time>2019-04-26T20:48:09Z</time>
      </trkpt>
      <trkpt lat="51.230688873583" lon="4.463467278121">
        <ele>0</ele>
        <time>2019-04-26T20:48:34Z</time>
      </trkpt>
      <trkpt lat="51.230443954465" lon="4.463656541423">
        <ele>0</ele>
        <time>2019-04-26T20:49:22Z</time>
      </trkpt>
      <trkpt lat="51.230551410423" lon="4.46409265168">
        <ele>0</ele>
        <time>2019-04-26T20:49:52Z</time>
      </trkpt>
      <trkpt lat="51.230576053209" lon="4.464435303752">
        <ele>0</ele>
        <time>2019-04-26T20:50:17Z</time>
      </trkpt>
      <trkpt lat="51.230706643211" lon="4.464731771555">
        <ele>0</ele>
        <time>2019-04-26T20:50:34Z</time>
      </trkpt>
      <trkpt lat="51.230722820278" lon="4.464881975203">
        <ele>0</ele>
        <time>2019-04-26T20:50:44Z</time>
      </trkpt>
      <trkpt lat="51.230788534374" lon="4.465595610169">
        <ele>0</ele>
        <time>2019-04-26T20:51:19Z</time>
      </trkpt>
      <trkpt lat="51.230777554085" lon="4.466306395289">
        <ele>0</ele>
        <time>2019-04-26T20:51:53Z</time>
      </trkpt>
      <trkpt lat="51.230775374791" lon="4.466344365296">
        <ele>0</ele>
        <time>2019-04-26T20:51:57Z</time>
      </trkpt>
      <trkpt lat="51.230784762519" lon="4.466396919809">
        <ele>0</ele>
        <time>2019-04-26T20:52:00Z</time>
      </trkpt>
      <trkpt lat="51.230730363988" lon="4.467115667734">
        <ele>0</ele>
        <time>2019-04-26T20:52:33Z</time>
      </trkpt>
      <trkpt lat="51.230768585452" lon="4.467348433097">
        <ele>0</ele>
        <time>2019-04-26T20:52:51Z</time>
      </trkpt>
      <trkpt lat="51.230675294905" lon="4.467533756906">
        <ele>0</ele>
        <time>2019-04-26T20:53:07Z</time>
      </trkpt>
      <trkpt lat="51.230364074958" lon="4.467640626131">
        <ele>0</ele>
        <time>2019-04-26T20:53:57Z</time>
      </trkpt>
      <trkpt lat="51.229922097371" lon="4.467767947192">
        <ele>0</ele>
        <time>2019-04-26T20:54:43Z</time>
      </trkpt>
      <trkpt lat="51.229904495381" lon="4.467771886685">
        <ele>0</ele>
        <time>2019-04-26T20:54:44Z</time>
      </trkpt>
      <trkpt lat="51.229849426298" lon="4.467795942738">
        <ele>0</ele>
        <time>2019-04-26T20:54:58Z</time>
      </trkpt>
      <trkpt lat="51.229393031843" lon="4.467844809215">
        <ele>0</ele>
        <time>2019-04-26T20:55:32Z</time>
      </trkpt>
      <trkpt lat="51.22928180403" lon="4.467781442051">
        <ele>0</ele>
        <time>2019-04-26T20:56:03Z</time>
      </trkpt>
      <trkpt lat="51.229111148546" lon="4.467774401255">
        <ele>0</ele>
        <time>2019-04-26T20:56:20Z</time>
      </trkpt>
      <trkpt lat="51.229086589579" lon="4.467770042667">
        <ele>0</ele>
        <time>2019-04-26T20:56:30Z</time>
      </trkpt>
      <trkpt lat="51.228937643216" lon="4.467730899194">
        <ele>0</ele>
        <time>2019-04-26T20:56:43Z</time>
      </trkpt>
      <trkpt lat="51.228825996308" lon="4.467691336626">
        <ele>0</ele>
        <time>2019-04-26T20:56:52Z</time>
      </trkpt>
      <trkpt lat="51.228413103914" lon="4.467448177707">
        <ele>0</ele>
        <time>2019-04-26T20:57:25Z</time>
      </trkpt>
      <trkpt lat="51.228311850562" lon="4.467412386994">
        <ele>0</ele>
        <time>2019-04-26T20:57:46Z</time>
      </trkpt>
      <trkpt lat="51.228207998821" lon="4.467267883038">
        <ele>0</ele>
        <time>2019-04-26T20:58:22Z</time>
      </trkpt>
      <trkpt lat="51.22780239868" lon="4.466987843759">
        <ele>0</ele>
        <time>2019-04-26T20:59:04Z</time>
      </trkpt>
      <trkpt lat="51.22779401678" lon="4.46694585044">
        <ele>0</ele>
        <time>2019-04-26T20:59:09Z</time>
      </trkpt>
      <trkpt lat="51.227832908796" lon="4.466865551838">
        <ele>0</ele>
        <time>2019-04-26T20:59:15Z</time>
      </trkpt>
      <trkpt lat="51.227838692307" lon="4.466827581831">
        <ele>0</ele>
        <time>2019-04-26T20:59:17Z</time>
      </trkpt>
      <trkpt lat="51.227846487474" lon="4.466126184439">
        <ele>0</ele>
        <time>2019-04-26T20:59:48Z</time>
      </trkpt>
      <trkpt lat="51.227909519362" lon="4.466009424572">
        <ele>0</ele>
        <time>2019-04-26T20:59:54Z</time>
      </trkpt>
      <trkpt lat="51.227893845209" lon="4.465298136538">
        <ele>0</ele>
        <time>2019-04-26T21:00:25Z</time>
      </trkpt>
      <trkpt lat="51.227881775273" lon="4.464747948622">
        <ele>0</ele>
        <time>2019-04-26T21:00:49Z</time>
      </trkpt>
      <trkpt lat="51.227911028104" lon="4.464219553646">
        <ele>1</ele>
        <time>2019-04-26T21:01:18Z</time>
      </trkpt>
      <trkpt lat="51.227835591004" lon="4.463508768526">
        <ele>0</ele>
        <time>2019-04-26T21:01:48Z</time>
      </trkpt>
      <trkpt lat="51.227780857197" lon="4.463081710721">
        <ele>0</ele>
        <time>2019-04-26T21:02:07Z</time>
      </trkpt>
      <trkpt lat="51.227630066816" lon="4.46288649627">
        <ele>0</ele>
        <time>2019-04-26T21:02:37Z</time>
      </trkpt>
      <trkpt lat="51.227601735994" lon="4.462688431973">
        <ele>0</ele>
        <time>2019-04-26T21:02:48Z</time>
      </trkpt>
      <trkpt lat="51.227487574516" lon="4.46226036834">
        <ele>0</ele>
        <time>2019-04-26T21:03:12Z</time>
      </trkpt>
      <trkpt lat="51.227484305575" lon="4.46217822572">
        <ele>0</ele>
        <time>2019-04-26T21:03:16Z</time>
      </trkpt>
      <trkpt lat="51.22746628449" lon="4.462054257419">
        <ele>0</ele>
        <time>2019-04-26T21:03:24Z</time>
      </trkpt>
      <trkpt lat="51.227397133815" lon="4.461641951758">
        <ele>0</ele>
        <time>2019-04-26T21:03:44Z</time>
      </trkpt>
      <trkpt lat="51.227008213655" lon="4.46154958322">
        <ele>0</ele>
        <time>2019-04-26T21:04:18Z</time>
      </trkpt>
      <trkpt lat="51.226901763525" lon="4.461593420557">
        <ele>0</ele>
        <time>2019-04-26T21:04:25Z</time>
      </trkpt>
      <trkpt lat="51.226810987548" lon="4.46160909471">
        <ele>3</ele>
        <time>2019-04-26T21:04:33Z</time>
      </trkpt>
      <trkpt lat="51.226682744478" lon="4.461436679027">
        <ele>11.8</ele>
        <time>2019-04-26T21:04:58Z</time>
      </trkpt>
      <trkpt lat="51.226634464734" lon="4.461019763321">
        <ele>2.8</ele>
        <time>2019-04-26T21:05:20Z</time>
      </trkpt>
      <trkpt lat="51.226429862555" lon="4.460371842451">
        <ele>10.8</ele>
        <time>2019-04-26T21:05:50Z</time>
      </trkpt>
      <trkpt lat="51.22638334301" lon="4.46019590637">
        <ele>9.6</ele>
        <time>2019-04-26T21:06:02Z</time>
      </trkpt>
      <trkpt lat="51.226182512686" lon="4.459565084576">
        <ele>5.2</ele>
        <time>2019-04-26T21:06:38Z</time>
      </trkpt>
      <trkpt lat="51.226174885157" lon="4.459523007438">
        <ele>4</ele>
        <time>2019-04-26T21:06:42Z</time>
      </trkpt>
      <trkpt lat="51.226146805792" lon="4.459459472636">
        <ele>5.2</ele>
        <time>2019-04-26T21:06:49Z</time>
      </trkpt>
      <trkpt lat="51.225927283831" lon="4.458849354135">
        <ele>5.4</ele>
        <time>2019-04-26T21:07:21Z</time>
      </trkpt>
      <trkpt lat="51.226057370919" lon="4.458685404171">
        <ele>0</ele>
        <time>2019-04-26T21:10:49Z</time>
      </trkpt>
      <trkpt lat="51.22632466971" lon="4.458437886664">
        <ele>0</ele>
        <time>2019-04-26T21:11:20Z</time>
      </trkpt>
      <trkpt lat="51.226505299655" lon="4.458255747977">
        <ele>0.8</ele>
        <time>2019-04-26T21:11:46Z</time>
      </trkpt>
      <trkpt lat="51.226566822801" lon="4.458268488465">
        <ele>0</ele>
        <time>2019-04-26T21:13:13Z</time>
      </trkpt>
      <trkpt lat="51.227007710741" lon="4.458069166883">
        <ele>0</ele>
        <time>2019-04-26T21:13:47Z</time>
      </trkpt>
      <trkpt lat="51.227091697379" lon="4.458028766125">
        <ele>0</ele>
        <time>2019-04-26T21:13:53Z</time>
      </trkpt>
      <trkpt lat="51.227253635687" lon="4.457907731489">
        <ele>0</ele>
        <time>2019-04-26T21:14:07Z</time>
      </trkpt>
      <trkpt lat="51.227270315668" lon="4.45789004568">
        <ele>0</ele>
        <time>2019-04-26T21:14:09Z</time>
      </trkpt>
      <trkpt lat="51.227578099036" lon="4.457753588348">
        <ele>0</ele>
        <time>2019-04-26T21:14:33Z</time>
      </trkpt>
      <trkpt lat="51.228010521257" lon="4.457500957882">
        <ele>0</ele>
        <time>2019-04-26T21:15:03Z</time>
      </trkpt>
      <trkpt lat="51.228067685815" lon="4.457477823838">
        <ele>0</ele>
        <time>2019-04-26T21:15:11Z</time>
      </trkpt>
      <trkpt lat="51.228222583327" lon="4.457367266577">
        <ele>0</ele>
        <time>2019-04-26T21:15:22Z</time>
      </trkpt>
      <trkpt lat="51.228204478423" lon="4.45734103123">
        <ele>0</ele>
        <time>2019-04-26T21:15:28Z</time>
      </trkpt>
      <trkpt lat="51.228163239475" lon="4.457331559683">
        <ele>0</ele>
        <time>2019-04-26T21:15:40Z</time>
      </trkpt>
      <trkpt lat="51.228458366174" lon="4.45727062327">
        <ele>0</ele>
        <time>2019-04-26T21:16:00Z</time>
      </trkpt>
      <trkpt lat="51.228481835494" lon="4.457304821422">
        <ele>0</ele>
        <time>2019-04-26T21:16:02Z</time>
      </trkpt>
      <trkpt lat="51.228566995598" lon="4.458030693962">
        <ele>0</ele>
        <time>2019-04-26T21:16:36Z</time>
      </trkpt>
      <trkpt lat="51.228604043596" lon="4.458123397776">
        <ele>0</ele>
        <time>2019-04-26T21:16:44Z</time>
      </trkpt>
      <trkpt lat="51.228952730636" lon="4.458097246248">
        <ele>0</ele>
        <time>2019-04-26T21:17:11Z</time>
      </trkpt>
      <trkpt lat="51.229396887517" lon="4.457959531631">
        <ele>0</ele>
        <time>2019-04-26T21:17:38Z</time>
      </trkpt>
      <trkpt lat="51.229501912724" lon="4.457952742292">
        <ele>0</ele>
        <time>2019-04-26T21:17:49Z</time>
      </trkpt>
      <trkpt lat="51.229712214595" lon="4.45788585473">
        <ele>0</ele>
        <time>2019-04-26T21:18:06Z</time>
      </trkpt>
      <trkpt lat="51.229790082446" lon="4.457855512252">
        <ele>0</ele>
        <time>2019-04-26T21:18:10Z</time>
      </trkpt>
      <trkpt lat="51.229847749918" lon="4.457926339307">
        <ele>0</ele>
        <time>2019-04-26T21:18:15Z</time>
      </trkpt>
      <trkpt lat="51.229712549871" lon="4.457976798345">
        <ele>0</ele>
        <time>2019-04-26T21:18:26Z</time>
      </trkpt>
      <trkpt lat="51.229703329781" lon="4.457968248807">
        <ele>0</ele>
        <time>2019-04-26T21:18:29Z</time>
      </trkpt>
      <trkpt lat="51.229701653401" lon="4.457960788916">
        <ele>0</ele>
        <time>2019-04-26T21:18:30Z</time>
      </trkpt>
    </trkseg>
  </trk>
</gpx>